sensor_id;sensor_type;location;lat;lon;timestamp;P1;durP1;ratioP1;P2;durP2;ratioP2
11763;SDS011;5939;56.522;14.950;2023-07-20T00:01:51;2.50;;;1.10;;
11763;SDS011;5939;56.522;14.950;2023-07-20T00:04:17;2.63;;;1.10;;
11763;SDS011;5939;56.522;14.950;2023-07-20T00:06:42;3.83;;;1.20;;
11763;SDS011;5939;56.522;14.950;2023-07-20T00:09:08;2.83;;;1.23;;
11763;SDS011;5939;56.522;14.950;2023-07-20T00:11:36;2.47;;;1.23;;
11763;SDS011;5939;56.522;14.950;2023-07-20T00:14:05;2.07;;;1.10;;
11763;SDS011;5939;56.522;14.950;2023-07-20T00:16:31;2.03;;;1.23;;
11763;SDS011;5939;56.522;14.950;2023-07-20T00:18:57;3.03;;;1.03;;
11763;SDS011;5939;56.522;14.950;2023-07-20T00:21:23;2.13;;;1.20;;
11763;SDS011;5939;56.522;14.950;2023-07-20T00:23:48;1.47;;;1.30;;
11763;SDS011;5939;56.522;14.950;2023-07-20T00:26:14;1.07;;;0.97;;
11763;SDS011;5939;56.522;14.950;2023-07-20T00:28:40;2.00;;;1.20;;
11763;SDS011;5939;56.522;14.950;2023-07-20T00:31:05;1.93;;;1.33;;
11763;SDS011;5939;56.522;14.950;2023-07-20T00:33:31;1.60;;;1.10;;
11763;SDS011;5939;56.522;14.950;2023-07-20T00:35:57;2.53;;;1.30;;
11763;SDS011;5939;56.522;14.950;2023-07-20T00:38:22;1.43;;;1.30;;
11763;SDS011;5939;56.522;14.950;2023-07-20T00:40:48;1.70;;;1.40;;
11763;SDS011;5939;56.522;14.950;2023-07-20T00:43:14;2.03;;;1.13;;
11763;SDS011;5939;56.522;14.950;2023-07-20T00:45:40;1.50;;;1.10;;
11763;SDS011;5939;56.522;14.950;2023-07-20T00:48:07;4.63;;;1.70;;
11763;SDS011;5939;56.522;14.950;2023-07-20T00:50:33;1.10;;;1.00;;
11763;SDS011;5939;56.522;14.950;2023-07-20T00:52:59;1.57;;;1.10;;
11763;SDS011;5939;56.522;14.950;2023-07-20T00:55:28;2.43;;;1.30;;
11763;SDS011;5939;56.522;14.950;2023-07-20T00:57:54;1.43;;;1.10;;
11763;SDS011;5939;56.522;14.950;2023-07-20T01:00:20;2.30;;;1.20;;
11763;SDS011;5939;56.522;14.950;2023-07-20T01:02:46;1.83;;;1.20;;
11763;SDS011;5939;56.522;14.950;2023-07-20T01:05:12;1.70;;;1.20;;
11763;SDS011;5939;56.522;14.950;2023-07-20T01:13:01;1.60;;;1.20;;
11763;SDS011;5939;56.522;14.950;2023-07-20T01:15:28;1.60;;;1.20;;
11763;SDS011;5939;56.522;14.950;2023-07-20T01:17:54;1.20;;;1.00;;
11763;SDS011;5939;56.522;14.950;2023-07-20T01:20:20;2.60;;;1.20;;
11763;SDS011;5939;56.522;14.950;2023-07-20T01:25:41;1.20;;;1.10;;
11763;SDS011;5939;56.522;14.950;2023-07-20T01:31:30;1.83;;;1.27;;
11763;SDS011;5939;56.522;14.950;2023-07-20T01:33:58;2.43;;;1.20;;
11763;SDS011;5939;56.522;14.950;2023-07-20T01:36:28;2.13;;;1.10;;
11763;SDS011;5939;56.522;14.950;2023-07-20T01:38:58;1.40;;;1.10;;
11763;SDS011;5939;56.522;14.950;2023-07-20T01:41:24;1.17;;;1.07;;
11763;SDS011;5939;56.522;14.950;2023-07-20T01:43:50;1.83;;;1.03;;
11763;SDS011;5939;56.522;14.950;2023-07-20T01:46:15;3.03;;;1.20;;
11763;SDS011;5939;56.522;14.950;2023-07-20T01:48:41;1.73;;;1.10;;
11763;SDS011;5939;56.522;14.950;2023-07-20T01:51:07;1.30;;;1.00;;
11763;SDS011;5939;56.522;14.950;2023-07-20T01:53:32;1.50;;;1.00;;
11763;SDS011;5939;56.522;14.950;2023-07-20T01:55:58;1.43;;;1.10;;
11763;SDS011;5939;56.522;14.950;2023-07-20T01:58:24;1.20;;;1.00;;
11763;SDS011;5939;56.522;14.950;2023-07-20T02:00:49;3.07;;;1.10;;
11763;SDS011;5939;56.522;14.950;2023-07-20T02:03:15;2.07;;;1.33;;
11763;SDS011;5939;56.522;14.950;2023-07-20T02:05:44;1.73;;;1.00;;
11763;SDS011;5939;56.522;14.950;2023-07-20T02:08:09;3.10;;;1.10;;
11763;SDS011;5939;56.522;14.950;2023-07-20T02:10:35;1.27;;;1.10;;
11763;SDS011;5939;56.522;14.950;2023-07-20T02:13:01;1.30;;;1.10;;
11763;SDS011;5939;56.522;14.950;2023-07-20T02:15:27;1.33;;;1.10;;
11763;SDS011;5939;56.522;14.950;2023-07-20T02:17:53;2.80;;;1.27;;
11763;SDS011;5939;56.522;14.950;2023-07-20T02:20:19;1.83;;;1.10;;
11763;SDS011;5939;56.522;14.950;2023-07-20T02:22:45;3.17;;;1.10;;
11763;SDS011;5939;56.522;14.950;2023-07-20T02:25:10;2.10;;;1.30;;
11763;SDS011;5939;56.522;14.950;2023-07-20T02:27:36;1.37;;;1.20;;
11763;SDS011;5939;56.522;14.950;2023-07-20T02:30:03;1.33;;;1.23;;
11763;SDS011;5939;56.522;14.950;2023-07-20T02:32:29;1.47;;;1.20;;
11763;SDS011;5939;56.522;14.950;2023-07-20T02:34:55;1.63;;;1.00;;
11763;SDS011;5939;56.522;14.950;2023-07-20T02:37:21;1.27;;;1.00;;
11763;SDS011;5939;56.522;14.950;2023-07-20T02:39:46;1.30;;;1.20;;
11763;SDS011;5939;56.522;14.950;2023-07-20T02:42:12;2.13;;;1.23;;
11763;SDS011;5939;56.522;14.950;2023-07-20T02:44:38;1.40;;;1.20;;
11763;SDS011;5939;56.522;14.950;2023-07-20T02:47:04;1.77;;;1.03;;
11763;SDS011;5939;56.522;14.950;2023-07-20T02:49:29;2.50;;;1.17;;
11763;SDS011;5939;56.522;14.950;2023-07-20T02:51:55;1.10;;;1.00;;
11763;SDS011;5939;56.522;14.950;2023-07-20T02:54:21;2.03;;;1.20;;
11763;SDS011;5939;56.522;14.950;2023-07-20T02:56:47;1.63;;;1.50;;
11763;SDS011;5939;56.522;14.950;2023-07-20T02:59:12;1.10;;;1.00;;
11763;SDS011;5939;56.522;14.950;2023-07-20T03:01:38;2.03;;;1.10;;
11763;SDS011;5939;56.522;14.950;2023-07-20T03:04:04;1.40;;;1.30;;
11763;SDS011;5939;56.522;14.950;2023-07-20T03:06:29;1.10;;;1.00;;
11763;SDS011;5939;56.522;14.950;2023-07-20T03:08:55;2.07;;;1.23;;
11763;SDS011;5939;56.522;14.950;2023-07-20T03:11:21;2.73;;;1.10;;
11763;SDS011;5939;56.522;14.950;2023-07-20T03:13:47;1.37;;;1.10;;
11763;SDS011;5939;56.522;14.950;2023-07-20T03:16:14;1.33;;;1.10;;
11763;SDS011;5939;56.522;14.950;2023-07-20T03:18:43;1.30;;;0.90;;
11763;SDS011;5939;56.522;14.950;2023-07-20T03:21:09;2.30;;;1.10;;
11763;SDS011;5939;56.522;14.950;2023-07-20T03:23:38;0.93;;;0.93;;
11763;SDS011;5939;56.522;14.950;2023-07-20T03:26:05;2.20;;;1.03;;
11763;SDS011;5939;56.522;14.950;2023-07-20T03:28:33;1.10;;;1.00;;
11763;SDS011;5939;56.522;14.950;2023-07-20T03:30:59;1.40;;;1.30;;
11763;SDS011;5939;56.522;14.950;2023-07-20T03:33:25;1.83;;;1.17;;
11763;SDS011;5939;56.522;14.950;2023-07-20T03:35:53;1.50;;;1.17;;
11763;SDS011;5939;56.522;14.950;2023-07-20T03:38:20;1.27;;;1.10;;
11763;SDS011;5939;56.522;14.950;2023-07-20T03:40:58;1.43;;;1.10;;
11763;SDS011;5939;56.522;14.950;2023-07-20T03:43:25;1.70;;;1.10;;
11763;SDS011;5939;56.522;14.950;2023-07-20T03:45:52;2.03;;;1.40;;
11763;SDS011;5939;56.522;14.950;2023-07-20T03:48:19;1.43;;;1.20;;
11763;SDS011;5939;56.522;14.950;2023-07-20T03:50:47;0.83;;;0.83;;
11763;SDS011;5939;56.522;14.950;2023-07-20T03:53:14;1.43;;;1.10;;
11763;SDS011;5939;56.522;14.950;2023-07-20T03:55:40;1.40;;;1.30;;
11763;SDS011;5939;56.522;14.950;2023-07-20T03:58:11;1.83;;;1.10;;
11763;SDS011;5939;56.522;14.950;2023-07-20T04:00:37;2.93;;;1.03;;
11763;SDS011;5939;56.522;14.950;2023-07-20T04:03:03;2.03;;;1.00;;
11763;SDS011;5939;56.522;14.950;2023-07-20T04:05:28;2.60;;;1.00;;
11763;SDS011;5939;56.522;14.950;2023-07-20T04:07:54;2.33;;;1.20;;
11763;SDS011;5939;56.522;14.950;2023-07-20T04:10:20;1.13;;;1.03;;
11763;SDS011;5939;56.522;14.950;2023-07-20T04:12:46;1.73;;;1.10;;
11763;SDS011;5939;56.522;14.950;2023-07-20T04:15:14;1.37;;;1.17;;
11763;SDS011;5939;56.522;14.950;2023-07-20T04:17:40;1.50;;;1.00;;
11763;SDS011;5939;56.522;14.950;2023-07-20T04:20:06;1.20;;;1.10;;
11763;SDS011;5939;56.522;14.950;2023-07-20T04:22:33;1.10;;;1.00;;
11763;SDS011;5939;56.522;14.950;2023-07-20T04:24:58;1.03;;;0.97;;
11763;SDS011;5939;56.522;14.950;2023-07-20T04:27:24;1.30;;;0.87;;
11763;SDS011;5939;56.522;14.950;2023-07-20T04:29:50;1.20;;;1.10;;
11763;SDS011;5939;56.522;14.950;2023-07-20T04:32:15;1.93;;;1.00;;
11763;SDS011;5939;56.522;14.950;2023-07-20T04:34:41;1.13;;;1.07;;
11763;SDS011;5939;56.522;14.950;2023-07-20T04:37:07;0.80;;;0.80;;
11763;SDS011;5939;56.522;14.950;2023-07-20T04:39:33;1.10;;;1.00;;
11763;SDS011;5939;56.522;14.950;2023-07-20T04:41:59;1.77;;;1.00;;
11763;SDS011;5939;56.522;14.950;2023-07-20T04:44:24;1.37;;;1.10;;
11763;SDS011;5939;56.522;14.950;2023-07-20T04:46:50;1.33;;;1.07;;
11763;SDS011;5939;56.522;14.950;2023-07-20T04:49:16;1.43;;;1.27;;
11763;SDS011;5939;56.522;14.950;2023-07-20T04:51:41;1.23;;;0.93;;
11763;SDS011;5939;56.522;14.950;2023-07-20T04:54:07;1.50;;;1.23;;
11763;SDS011;5939;56.522;14.950;2023-07-20T04:56:32;1.57;;;1.17;;
11763;SDS011;5939;56.522;14.950;2023-07-20T04:58:58;1.17;;;0.90;;
11763;SDS011;5939;56.522;14.950;2023-07-20T05:01:24;1.10;;;1.00;;
11763;SDS011;5939;56.522;14.950;2023-07-20T05:03:51;0.83;;;0.83;;
11763;SDS011;5939;56.522;14.950;2023-07-20T05:06:17;1.17;;;1.03;;
11763;SDS011;5939;56.522;14.950;2023-07-20T05:08:43;1.20;;;0.90;;
11763;SDS011;5939;56.522;14.950;2023-07-20T05:11:09;1.63;;;1.17;;
11763;SDS011;5939;56.522;14.950;2023-07-20T05:13:36;1.77;;;1.00;;
11763;SDS011;5939;56.522;14.950;2023-07-20T05:16:01;1.30;;;1.10;;
11763;SDS011;5939;56.522;14.950;2023-07-20T05:18:27;1.20;;;1.03;;
11763;SDS011;5939;56.522;14.950;2023-07-20T05:20:53;1.10;;;0.90;;
11763;SDS011;5939;56.522;14.950;2023-07-20T05:23:20;0.83;;;0.80;;
11763;SDS011;5939;56.522;14.950;2023-07-20T05:25:47;1.97;;;1.00;;
11763;SDS011;5939;56.522;14.950;2023-07-20T05:28:25;1.70;;;1.20;;
11763;SDS011;5939;56.522;14.950;2023-07-20T05:30:52;1.10;;;1.00;;
11763;SDS011;5939;56.522;14.950;2023-07-20T05:33:18;1.60;;;1.10;;
11763;SDS011;5939;56.522;14.950;2023-07-20T05:35:47;1.53;;;1.13;;
11763;SDS011;5939;56.522;14.950;2023-07-20T05:38:13;2.43;;;1.10;;
11763;SDS011;5939;56.522;14.950;2023-07-20T05:40:40;1.20;;;1.03;;
11763;SDS011;5939;56.522;14.950;2023-07-20T05:43:09;1.40;;;1.03;;
11763;SDS011;5939;56.522;14.950;2023-07-20T05:45:35;1.53;;;1.03;;
11763;SDS011;5939;56.522;14.950;2023-07-20T05:48:01;2.27;;;0.90;;
11763;SDS011;5939;56.522;14.950;2023-07-20T05:50:26;1.10;;;1.00;;
11763;SDS011;5939;56.522;14.950;2023-07-20T05:52:53;2.60;;;1.20;;
11763;SDS011;5939;56.522;14.950;2023-07-20T05:55:19;1.30;;;1.00;;
11763;SDS011;5939;56.522;14.950;2023-07-20T05:57:45;2.07;;;1.30;;
11763;SDS011;5939;56.522;14.950;2023-07-20T06:00:11;1.10;;;1.00;;
11763;SDS011;5939;56.522;14.950;2023-07-20T06:02:38;2.37;;;1.43;;
11763;SDS011;5939;56.522;14.950;2023-07-20T06:05:05;3.77;;;1.60;;
11763;SDS011;5939;56.522;14.950;2023-07-20T06:07:37;2.77;;;1.33;;
11763;SDS011;5939;56.522;14.950;2023-07-20T06:10:03;2.43;;;1.33;;
11763;SDS011;5939;56.522;14.950;2023-07-20T06:12:30;2.53;;;1.40;;
11763;SDS011;5939;56.522;14.950;2023-07-20T06:14:56;2.57;;;1.53;;
11763;SDS011;5939;56.522;14.950;2023-07-20T06:17:22;2.80;;;1.47;;
11763;SDS011;5939;56.522;14.950;2023-07-20T06:19:47;2.33;;;1.50;;
11763;SDS011;5939;56.522;14.950;2023-07-20T06:22:13;1.90;;;1.20;;
11763;SDS011;5939;56.522;14.950;2023-07-20T06:24:39;2.77;;;1.63;;
11763;SDS011;5939;56.522;14.950;2023-07-20T06:27:05;2.43;;;1.60;;
11763;SDS011;5939;56.522;14.950;2023-07-20T06:29:31;2.57;;;1.60;;
11763;SDS011;5939;56.522;14.950;2023-07-20T06:31:56;5.50;;;1.67;;
11763;SDS011;5939;56.522;14.950;2023-07-20T06:34:22;2.77;;;1.57;;
11763;SDS011;5939;56.522;14.950;2023-07-20T06:36:47;1.93;;;1.70;;
11763;SDS011;5939;56.522;14.950;2023-07-20T06:39:13;2.80;;;1.87;;
11763;SDS011;5939;56.522;14.950;2023-07-20T06:41:39;2.83;;;1.60;;
11763;SDS011;5939;56.522;14.950;2023-07-20T06:44:05;4.53;;;1.60;;
11763;SDS011;5939;56.522;14.950;2023-07-20T06:46:30;3.70;;;1.87;;
11763;SDS011;5939;56.522;14.950;2023-07-20T06:48:56;3.10;;;1.83;;
11763;SDS011;5939;56.522;14.950;2023-07-20T06:51:22;2.50;;;1.70;;
11763;SDS011;5939;56.522;14.950;2023-07-20T06:53:47;2.13;;;1.70;;
11763;SDS011;5939;56.522;14.950;2023-07-20T06:56:13;3.37;;;1.87;;
11763;SDS011;5939;56.522;14.950;2023-07-20T06:58:39;2.97;;;1.60;;
11763;SDS011;5939;56.522;14.950;2023-07-20T07:01:08;2.97;;;1.73;;
11763;SDS011;5939;56.522;14.950;2023-07-20T07:03:34;3.37;;;2.00;;
11763;SDS011;5939;56.522;14.950;2023-07-20T07:05:59;3.10;;;2.20;;
11763;SDS011;5939;56.522;14.950;2023-07-20T07:08:25;3.47;;;1.93;;
11763;SDS011;5939;56.522;14.950;2023-07-20T07:10:51;3.70;;;1.80;;
11763;SDS011;5939;56.522;14.950;2023-07-20T07:13:18;2.50;;;2.00;;
11763;SDS011;5939;56.522;14.950;2023-07-20T07:15:44;2.13;;;1.80;;
11763;SDS011;5939;56.522;14.950;2023-07-20T07:18:10;3.03;;;1.90;;
11763;SDS011;5939;56.522;14.950;2023-07-20T07:20:36;3.60;;;1.90;;
11763;SDS011;5939;56.522;14.950;2023-07-20T07:23:01;4.03;;;2.10;;
11763;SDS011;5939;56.522;14.950;2023-07-20T07:25:27;2.63;;;2.13;;
11763;SDS011;5939;56.522;14.950;2023-07-20T07:27:53;3.87;;;2.13;;
11763;SDS011;5939;56.522;14.950;2023-07-20T07:30:21;2.97;;;2.00;;
11763;SDS011;5939;56.522;14.950;2023-07-20T07:32:46;2.30;;;1.90;;
11763;SDS011;5939;56.522;14.950;2023-07-20T07:35:12;2.73;;;1.90;;
11763;SDS011;5939;56.522;14.950;2023-07-20T07:37:38;4.23;;;2.17;;
11763;SDS011;5939;56.522;14.950;2023-07-20T07:40:04;3.73;;;1.97;;
11763;SDS011;5939;56.522;14.950;2023-07-20T07:42:31;3.37;;;2.20;;
11763;SDS011;5939;56.522;14.950;2023-07-20T07:44:56;2.80;;;2.00;;
11763;SDS011;5939;56.522;14.950;2023-07-20T07:47:22;3.80;;;2.20;;
11763;SDS011;5939;56.522;14.950;2023-07-20T07:49:48;5.13;;;2.20;;
11763;SDS011;5939;56.522;14.950;2023-07-20T07:52:14;4.80;;;2.20;;
11763;SDS011;5939;56.522;14.950;2023-07-20T07:54:40;3.03;;;2.17;;
11763;SDS011;5939;56.522;14.950;2023-07-20T07:57:06;2.80;;;2.00;;
11763;SDS011;5939;56.522;14.950;2023-07-20T07:59:31;2.07;;;1.77;;
11763;SDS011;5939;56.522;14.950;2023-07-20T08:02:01;3.40;;;2.30;;
11763;SDS011;5939;56.522;14.950;2023-07-20T08:04:29;3.10;;;2.27;;
11763;SDS011;5939;56.522;14.950;2023-07-20T08:06:54;3.23;;;2.27;;
11763;SDS011;5939;56.522;14.950;2023-07-20T08:09:20;3.80;;;2.00;;
11763;SDS011;5939;56.522;14.950;2023-07-20T08:11:45;3.30;;;1.93;;
11763;SDS011;5939;56.522;14.950;2023-07-20T08:14:12;2.73;;;2.17;;
11763;SDS011;5939;56.522;14.950;2023-07-20T08:16:38;4.83;;;2.43;;
11763;SDS011;5939;56.522;14.950;2023-07-20T08:19:03;3.00;;;2.20;;
11763;SDS011;5939;56.522;14.950;2023-07-20T08:21:29;3.60;;;2.10;;
11763;SDS011;5939;56.522;14.950;2023-07-20T08:23:55;4.00;;;2.00;;
11763;SDS011;5939;56.522;14.950;2023-07-20T08:26:20;3.67;;;1.97;;
11763;SDS011;5939;56.522;14.950;2023-07-20T08:28:47;3.47;;;2.23;;
11763;SDS011;5939;56.522;14.950;2023-07-20T08:31:13;4.57;;;2.10;;
11763;SDS011;5939;56.522;14.950;2023-07-20T08:33:39;2.30;;;2.10;;
11763;SDS011;5939;56.522;14.950;2023-07-20T08:36:05;2.63;;;1.70;;
11763;SDS011;5939;56.522;14.950;2023-07-20T08:38:30;3.10;;;1.90;;
11763;SDS011;5939;56.522;14.950;2023-07-20T08:40:56;3.33;;;2.23;;
11763;SDS011;5939;56.522;14.950;2023-07-20T08:43:24;2.53;;;1.80;;
11763;SDS011;5939;56.522;14.950;2023-07-20T08:45:51;2.53;;;2.00;;
11763;SDS011;5939;56.522;14.950;2023-07-20T08:48:18;3.37;;;1.83;;
11763;SDS011;5939;56.522;14.950;2023-07-20T08:50:45;3.43;;;2.00;;
11763;SDS011;5939;56.522;14.950;2023-07-20T08:53:12;2.43;;;1.90;;
11763;SDS011;5939;56.522;14.950;2023-07-20T08:55:39;5.77;;;1.80;;
11763;SDS011;5939;56.522;14.950;2023-07-20T08:58:08;3.30;;;2.03;;
11763;SDS011;5939;56.522;14.950;2023-07-20T09:00:37;4.27;;;2.03;;
11763;SDS011;5939;56.522;14.950;2023-07-20T09:03:03;2.77;;;1.77;;
11763;SDS011;5939;56.522;14.950;2023-07-20T09:05:29;2.03;;;1.53;;
11763;SDS011;5939;56.522;14.950;2023-07-20T09:07:55;2.83;;;1.90;;
11763;SDS011;5939;56.522;14.950;2023-07-20T09:10:21;1.90;;;1.43;;
11763;SDS011;5939;56.522;14.950;2023-07-20T09:12:48;2.10;;;1.90;;
11763;SDS011;5939;56.522;14.950;2023-07-20T09:15:14;3.07;;;1.60;;
11763;SDS011;5939;56.522;14.950;2023-07-20T09:17:45;2.03;;;1.57;;
11763;SDS011;5939;56.522;14.950;2023-07-20T09:20:15;1.83;;;1.50;;
11763;SDS011;5939;56.522;14.950;2023-07-20T09:22:43;2.63;;;1.90;;
11763;SDS011;5939;56.522;14.950;2023-07-20T09:25:12;2.03;;;1.70;;
11763;SDS011;5939;56.522;14.950;2023-07-20T09:27:39;3.70;;;1.80;;
11763;SDS011;5939;56.522;14.950;2023-07-20T09:30:09;1.87;;;1.50;;
11763;SDS011;5939;56.522;14.950;2023-07-20T09:32:43;1.83;;;1.60;;
11763;SDS011;5939;56.522;14.950;2023-07-20T09:35:16;2.83;;;1.70;;
11763;SDS011;5939;56.522;14.950;2023-07-20T09:37:46;3.20;;;1.50;;
11763;SDS011;5939;56.522;14.950;2023-07-20T09:40:19;2.30;;;1.60;;
11763;SDS011;5939;56.522;14.950;2023-07-20T09:42:46;2.60;;;1.67;;
11763;SDS011;5939;56.522;14.950;2023-07-20T09:45:13;3.67;;;1.70;;
11763;SDS011;5939;56.522;14.950;2023-07-20T09:47:39;2.67;;;1.90;;
11763;SDS011;5939;56.522;14.950;2023-07-20T09:50:06;2.47;;;1.70;;
11763;SDS011;5939;56.522;14.950;2023-07-20T09:52:37;2.23;;;1.70;;
11763;SDS011;5939;56.522;14.950;2023-07-20T09:55:04;2.67;;;1.70;;
11763;SDS011;5939;56.522;14.950;2023-07-20T09:57:32;3.60;;;2.10;;
11763;SDS011;5939;56.522;14.950;2023-07-20T09:59:58;3.43;;;1.83;;
11763;SDS011;5939;56.522;14.950;2023-07-20T10:02:30;3.93;;;1.70;;
11763;SDS011;5939;56.522;14.950;2023-07-20T10:04:59;2.37;;;1.33;;
11763;SDS011;5939;56.522;14.950;2023-07-20T10:07:27;1.70;;;1.60;;
11763;SDS011;5939;56.522;14.950;2023-07-20T10:09:54;3.03;;;1.40;;
11763;SDS011;5939;56.522;14.950;2023-07-20T10:12:24;2.83;;;1.70;;
11763;SDS011;5939;56.522;14.950;2023-07-20T10:14:54;1.40;;;1.30;;
11763;SDS011;5939;56.522;14.950;2023-07-20T10:17:36;3.10;;;1.63;;
11763;SDS011;5939;56.522;14.950;2023-07-20T10:20:04;1.80;;;1.40;;
11763;SDS011;5939;56.522;14.950;2023-07-20T10:22:34;2.93;;;1.87;;
11763;SDS011;5939;56.522;14.950;2023-07-20T10:25:01;2.40;;;1.57;;
11763;SDS011;5939;56.522;14.950;2023-07-20T10:27:29;2.20;;;1.40;;
11763;SDS011;5939;56.522;14.950;2023-07-20T10:29:55;2.27;;;1.60;;
11763;SDS011;5939;56.522;14.950;2023-07-20T10:32:24;2.73;;;1.40;;
11763;SDS011;5939;56.522;14.950;2023-07-20T10:34:53;2.67;;;1.50;;
11763;SDS011;5939;56.522;14.950;2023-07-20T10:40:31;1.57;;;1.47;;
11763;SDS011;5939;56.522;14.950;2023-07-20T10:42:58;2.30;;;1.23;;
11763;SDS011;5939;56.522;14.950;2023-07-20T10:45:33;1.37;;;1.27;;
11763;SDS011;5939;56.522;14.950;2023-07-20T10:48:02;2.63;;;1.53;;
11763;SDS011;5939;56.522;14.950;2023-07-20T10:50:29;1.93;;;1.70;;
11763;SDS011;5939;56.522;14.950;2023-07-20T10:53:09;2.90;;;1.50;;
11763;SDS011;5939;56.522;14.950;2023-07-20T10:55:36;1.87;;;1.30;;
11763;SDS011;5939;56.522;14.950;2023-07-20T10:58:14;2.43;;;1.30;;
11763;SDS011;5939;56.522;14.950;2023-07-20T11:03:35;2.30;;;1.20;;
11763;SDS011;5939;56.522;14.950;2023-07-20T11:08:54;1.47;;;1.13;;
11763;SDS011;5939;56.522;14.950;2023-07-20T11:11:22;1.60;;;1.00;;
11763;SDS011;5939;56.522;14.950;2023-07-20T11:13:58;1.50;;;1.10;;
11763;SDS011;5939;56.522;14.950;2023-07-20T11:16:37;1.30;;;1.03;;
11763;SDS011;5939;56.522;14.950;2023-07-20T11:19:14;2.13;;;1.20;;
11763;SDS011;5939;56.522;14.950;2023-07-20T11:21:43;1.30;;;1.20;;
11763;SDS011;5939;56.522;14.950;2023-07-20T11:24:10;9.07;;;6.17;;
11763;SDS011;5939;56.522;14.950;2023-07-20T11:26:44;7.63;;;5.07;;
11763;SDS011;5939;56.522;14.950;2023-07-20T11:29:12;3.87;;;3.10;;
11763;SDS011;5939;56.522;14.950;2023-07-20T11:31:38;3.00;;;2.27;;
11763;SDS011;5939;56.522;14.950;2023-07-20T11:34:05;3.30;;;1.70;;
11763;SDS011;5939;56.522;14.950;2023-07-20T11:36:33;3.10;;;2.00;;
11763;SDS011;5939;56.522;14.950;2023-07-20T11:38:59;4.57;;;2.80;;
11763;SDS011;5939;56.522;14.950;2023-07-20T11:41:25;7.03;;;5.10;;
11763;SDS011;5939;56.522;14.950;2023-07-20T11:43:52;10.83;;;7.30;;
11763;SDS011;5939;56.522;14.950;2023-07-20T11:46:20;20.63;;;12.70;;
11763;SDS011;5939;56.522;14.950;2023-07-20T11:48:45;33.20;;;19.00;;
11763;SDS011;5939;56.522;14.950;2023-07-20T11:51:14;36.20;;;20.70;;
11763;SDS011;5939;56.522;14.950;2023-07-20T11:53:42;37.23;;;21.07;;
11763;SDS011;5939;56.522;14.950;2023-07-20T11:56:09;46.03;;;22.60;;
11763;SDS011;5939;56.522;14.950;2023-07-20T11:58:36;43.83;;;22.30;;
11763;SDS011;5939;56.522;14.950;2023-07-20T12:01:06;34.67;;;19.00;;
11763;SDS011;5939;56.522;14.950;2023-07-20T12:03:32;31.30;;;16.33;;
11763;SDS011;5939;56.522;14.950;2023-07-20T12:06:05;29.77;;;14.73;;
11763;SDS011;5939;56.522;14.950;2023-07-20T12:08:32;21.87;;;11.60;;
11763;SDS011;5939;56.522;14.950;2023-07-20T12:10:58;21.27;;;10.50;;
11763;SDS011;5939;56.522;14.950;2023-07-20T12:13:23;17.70;;;9.03;;
11763;SDS011;5939;56.522;14.950;2023-07-20T12:16:06;13.03;;;7.23;;
11763;SDS011;5939;56.522;14.950;2023-07-20T12:18:36;17.73;;;8.97;;
11763;SDS011;5939;56.522;14.950;2023-07-20T12:21:02;17.97;;;9.30;;
11763;SDS011;5939;56.522;14.950;2023-07-20T12:23:34;18.57;;;9.03;;
11763;SDS011;5939;56.522;14.950;2023-07-20T12:26:02;20.37;;;9.40;;
11763;SDS011;5939;56.522;14.950;2023-07-20T12:28:28;22.77;;;8.80;;
11763;SDS011;5939;56.522;14.950;2023-07-20T12:30:54;21.13;;;8.17;;
11763;SDS011;5939;56.522;14.950;2023-07-20T12:33:23;19.70;;;7.73;;
11763;SDS011;5939;56.522;14.950;2023-07-20T12:35:49;24.07;;;8.60;;
11763;SDS011;5939;56.522;14.950;2023-07-20T12:38:16;26.47;;;9.53;;
11763;SDS011;5939;56.522;14.950;2023-07-20T12:40:41;26.50;;;10.00;;
11763;SDS011;5939;56.522;14.950;2023-07-20T12:43:07;28.37;;;9.80;;
11763;SDS011;5939;56.522;14.950;2023-07-20T12:45:33;29.77;;;10.60;;
11763;SDS011;5939;56.522;14.950;2023-07-20T12:47:59;40.73;;;12.23;;
11763;SDS011;5939;56.522;14.950;2023-07-20T12:50:25;34.70;;;11.03;;
11763;SDS011;5939;56.522;14.950;2023-07-20T12:52:51;31.07;;;10.33;;
11763;SDS011;5939;56.522;14.950;2023-07-20T12:55:17;32.77;;;10.27;;
11763;SDS011;5939;56.522;14.950;2023-07-20T12:57:43;27.73;;;10.10;;
11763;SDS011;5939;56.522;14.950;2023-07-20T13:00:09;34.13;;;10.43;;
11763;SDS011;5939;56.522;14.950;2023-07-20T13:02:37;31.87;;;11.97;;
11763;SDS011;5939;56.522;14.950;2023-07-20T13:05:03;35.93;;;11.37;;
11763;SDS011;5939;56.522;14.950;2023-07-20T13:07:29;38.90;;;11.77;;
11763;SDS011;5939;56.522;14.950;2023-07-20T13:09:56;38.80;;;13.23;;
11763;SDS011;5939;56.522;14.950;2023-07-20T13:12:24;39.43;;;13.13;;
11763;SDS011;5939;56.522;14.950;2023-07-20T13:14:49;37.23;;;11.90;;
11763;SDS011;5939;56.522;14.950;2023-07-20T13:17:15;36.17;;;10.83;;
11763;SDS011;5939;56.522;14.950;2023-07-20T13:19:41;27.90;;;10.30;;
11763;SDS011;5939;56.522;14.950;2023-07-20T13:22:06;38.57;;;11.77;;
11763;SDS011;5939;56.522;14.950;2023-07-20T13:24:32;47.43;;;14.03;;
11763;SDS011;5939;56.522;14.950;2023-07-20T13:26:58;45.23;;;13.87;;
11763;SDS011;5939;56.522;14.950;2023-07-20T13:29:23;43.13;;;14.17;;
11763;SDS011;5939;56.522;14.950;2023-07-20T13:31:49;43.30;;;13.77;;
11763;SDS011;5939;56.522;14.950;2023-07-20T13:34:15;36.67;;;12.50;;
11763;SDS011;5939;56.522;14.950;2023-07-20T13:36:40;35.60;;;11.57;;
11763;SDS011;5939;56.522;14.950;2023-07-20T13:39:06;35.23;;;10.90;;
11763;SDS011;5939;56.522;14.950;2023-07-20T13:41:32;28.30;;;10.87;;
11763;SDS011;5939;56.522;14.950;2023-07-20T13:43:59;28.73;;;10.53;;
11763;SDS011;5939;56.522;14.950;2023-07-20T13:46:25;29.87;;;10.70;;
11763;SDS011;5939;56.522;14.950;2023-07-20T13:48:50;30.70;;;11.50;;
11763;SDS011;5939;56.522;14.950;2023-07-20T13:51:16;32.07;;;11.27;;
11763;SDS011;5939;56.522;14.950;2023-07-20T13:53:44;33.93;;;11.13;;
11763;SDS011;5939;56.522;14.950;2023-07-20T13:56:11;34.23;;;10.43;;
11763;SDS011;5939;56.522;14.950;2023-07-20T13:58:36;27.37;;;10.97;;
11763;SDS011;5939;56.522;14.950;2023-07-20T14:01:02;30.63;;;10.40;;
11763;SDS011;5939;56.522;14.950;2023-07-20T14:03:27;25.67;;;9.90;;
11763;SDS011;5939;56.522;14.950;2023-07-20T14:05:53;27.37;;;9.87;;
11763;SDS011;5939;56.522;14.950;2023-07-20T14:08:19;26.03;;;10.03;;
11763;SDS011;5939;56.522;14.950;2023-07-20T14:10:45;25.87;;;9.10;;
11763;SDS011;5939;56.522;14.950;2023-07-20T14:13:11;27.23;;;10.03;;
11763;SDS011;5939;56.522;14.950;2023-07-20T14:15:37;18.47;;;7.30;;
11763;SDS011;5939;56.522;14.950;2023-07-20T14:18:03;19.73;;;7.90;;
11763;SDS011;5939;56.522;14.950;2023-07-20T14:20:29;23.87;;;8.17;;
11763;SDS011;5939;56.522;14.950;2023-07-20T14:22:55;20.77;;;6.70;;
11763;SDS011;5939;56.522;14.950;2023-07-20T14:25:20;21.27;;;7.37;;
11763;SDS011;5939;56.522;14.950;2023-07-20T14:27:46;19.10;;;6.93;;
11763;SDS011;5939;56.522;14.950;2023-07-20T14:30:12;19.97;;;7.03;;
11763;SDS011;5939;56.522;14.950;2023-07-20T14:32:38;13.73;;;5.73;;
11763;SDS011;5939;56.522;14.950;2023-07-20T14:35:04;13.63;;;5.90;;
11763;SDS011;5939;56.522;14.950;2023-07-20T14:37:30;12.50;;;5.40;;
11763;SDS011;5939;56.522;14.950;2023-07-20T14:39:55;13.20;;;5.60;;
11763;SDS011;5939;56.522;14.950;2023-07-20T14:42:21;11.33;;;5.10;;
11763;SDS011;5939;56.522;14.950;2023-07-20T14:44:47;11.73;;;4.73;;
11763;SDS011;5939;56.522;14.950;2023-07-20T14:47:13;10.70;;;5.73;;
11763;SDS011;5939;56.522;14.950;2023-07-20T14:49:38;11.23;;;5.20;;
11763;SDS011;5939;56.522;14.950;2023-07-20T14:52:04;10.57;;;5.47;;
11763;SDS011;5939;56.522;14.950;2023-07-20T14:54:30;10.00;;;4.50;;
11763;SDS011;5939;56.522;14.950;2023-07-20T14:56:55;12.30;;;5.20;;
11763;SDS011;5939;56.522;14.950;2023-07-20T14:59:22;11.67;;;4.20;;
11763;SDS011;5939;56.522;14.950;2023-07-20T15:01:47;12.40;;;4.77;;